• Join FlightAware (Why Join?)
  • Login
  • US Flag 
07:39PM EST


 

Airport Tracker/Info


-or-


 

Live Flight TrackerFlight Track Log ✈ UAL6012 ✈ 27-Apr-2013 ✈ KIAD - KTYS

Flight Track Log - Related Links

Times and Time Zones

All times are in EDT time to prevent confusion due to time zone crossing. See the UAL6012 flight status page for this flight to view local times or setup timezone preferences in your user account.

Time Position Orientation Groundspeed Altitude Reporting Facility
EDT Latitude Longitude Course Direction KTS MPH feet Rate Location/Type
05:33PM 38.9000 -77.4333 230° Southwest 175 201 1,800  Level Potomac TRACON
05:35PM 38.7631 -77.4819 195° South 233 268 6,700 2,100 Climbing Washington Center
05:36PM 38.7036 -77.5417 218° Southwest 252 290 8,700 1,800 Climbing Washington Center
05:37PM 38.6486 -77.5933 216° Southwest 265 305 10,300 1,380 Climbing Washington Center
05:38PM 38.5786 -77.6606 217° Southwest 294 338 11,500 1,320 Climbing Washington Center
05:39PM 38.4680 -77.7813 230° Southwest  Level FlightAware Approximate
05:39PM 38.5044 -77.7381 219° Southwest 329 379 13,000  Level Washington Center
05:40PM 38.4506 -77.8372 235° Southwest 340 391 14,500 1,440 Climbing Washington Center
05:41PM 38.3964 -77.9417 237° Southwest 350 403 16,000 1,500 Climbing Washington Center
05:42PM 38.3422 -78.0458 236° Southwest 350 403 17,500 1,380 Climbing Washington Center
05:43PM 38.2900 -78.1472 237° Southwest 355 409 18,800 1,380 Climbing Washington Center
05:44PM 38.2356 -78.2511 236° Southwest 355 409 20,300 1,500 Climbing Washington Center
05:45PM 38.1789 -78.3547 235° Southwest 355 409 21,900 1,560 Climbing Washington Center
05:46PM 38.1244 -78.4608 237° Southwest 365 420 23,400 1,020 Climbing Washington Center
05:47PM 38.0861 -78.5756 247° West 365 420 24,000 300 Climbing Washington Center
05:48PM 38.0408 -78.7136 247° West 378 435 24,000  Level Washington Center
05:49PM 37.9958 -78.8408 246° West 393 452 24,000  Level Washington Center
05:50PM 37.9506 -78.9731 247° West 405 466 24,000  Level Washington Center
05:51PM 37.9072 -79.1003 247° West 405 466 24,000  Level Washington Center
05:52PM 37.8539 -79.2081 238° Southwest 405 466 24,000  Level Washington Center
05:53PM 37.7961 -79.3264 238° Southwest 399 459 24,000  Level Washington Center
05:54PM 37.7381 -79.4442 238° Southwest 405 466 24,000  Level Washington Center
05:55PM 37.6736 -79.5642 236° Southwest 405 466 24,000  Level Washington Center
05:56PM 37.6067 -79.6969 238° Southwest 405 466 24,000  Level Washington Center
05:57PM 37.5528 -79.8067 238° Southwest 405 466 24,000  Level Washington Center
05:58PM 37.4919 -79.9292 238° Southwest 412 474 24,000  Level Washington Center
05:59PM 37.4314 -80.0433 236° Southwest 412 474 24,000 -480 Level Washington Center
06:00PM 37.3728 -80.1603 238° Southwest 386 444 23,100 -960 Descending Washington Center
06:01PM 37.3186 -80.2692 238° Southwest 378 435 22,200 -600 Descending Washington Center
06:02PM 37.2600 -80.3778 236° Southwest 378 435 22,000 -120 Descending Washington Center
06:03PM 37.2175 -80.4581 236° Southwest 391 450 22,000  Level Atlanta Center
06:04PM 37.1583 -80.5700 236° Southwest 391 450 22,000  Level Atlanta Center
06:05PM 37.1028 -80.6792 237° Southwest 385 443 22,000 -120 Level Atlanta Center
06:06PM 37.0519 -80.8036 243° Southwest 369 425 21,800 -540 Descending Atlanta Center
06:07PM 37.0150 -80.9064 246° West 350 403 21,000 -900 Descending Atlanta Center
06:08PM 36.9761 -81.0144 246° West 344 396 20,000 -960 Descending Atlanta Center
06:09PM 36.9369 -81.1225 246° West 344 396 19,100 -900 Descending Atlanta Center
06:10PM 36.9000 -81.2303 247° West 355 409 18,200 -600 Descending Atlanta Center
06:11PM 36.8606 -81.3381 245° Southwest 360 414 18,000 -360 Descending Atlanta Center
06:12PM 36.8253 -81.4325 245° Southwest 331 381 17,500 -780 Descending Atlanta Center
06:13PM 36.7917 -81.5322 247° West 314 361 16,500 -1,080 Descending Atlanta Center
06:14PM 36.7544 -81.6447 248° West 314 361 15,400 -1,020 Descending Atlanta Center
06:15PM 36.7167 -81.7469 245° Southwest 320 368 14,500 -900 Descending Atlanta Center
06:16PM 36.6811 -81.8489 247° West 320 368 13,600 -900 Descending Atlanta Center
06:17PM 36.6431 -81.9456 244° Southwest 315 362 12,800 -840 Descending Atlanta Center
06:18PM 36.6072 -82.0422 245° Southwest 315 362 12,000 -840 Descending Atlanta Center
06:19PM 36.5733 -82.1389 246° West 315 362 11,200 -480 Descending Atlanta Center
06:20PM 36.5372 -82.2325 244° Southwest 310 357 11,100 -120 Descending Atlanta Center
06:21PM 36.5031 -82.3239 245° Southwest 305 351 11,000  Descending Atlanta Center
06:22PM 36.4689 -82.4200 246° West 299 344 11,100  Climbing Atlanta Center
06:23PM 36.4347 -82.5111 245° Southwest 304 350 11,100  Level Atlanta Center
06:24PM 36.4003 -82.6019 245° Southwest 304 350 11,100  Level Atlanta Center
06:25PM 36.3658 -82.6928 245° Southwest 299 344 11,100  Level Atlanta Center
06:26PM 36.3333 -82.7758 244° Southwest 282 325 11,100  Level Atlanta Center
06:27PM 36.3069 -82.8511 247° West 254 292 11,100 -60 Level Atlanta Center
06:28PM 36.2783 -82.9183 242° Southwest 248 285 11,000  Descending Atlanta Center
06:29PM 36.2500 -82.9961 246° West 248 285 11,100  Climbing Atlanta Center
06:30PM 36.2214 -83.0761 246° West 248 285 11,100 -60 Level Atlanta Center
06:31PM 36.1906 -83.1536 244° Southwest 254 292 11,000 -60 Descending Atlanta Center
06:32PM 36.1619 -83.2339 246° West 254 292 11,000 -120 Level Atlanta Center
06:33PM 36.1311 -83.3139 245° Southwest 254 292 10,800 -600 Descending Atlanta Center
06:34PM 36.1025 -83.3886 245° Southwest 254 292 9,800 -900 Descending Atlanta Center
06:35PM 36.0717 -83.4633 243° Southwest 247 284 9,000 -420 Descending Atlanta Center
06:36PM 36.0447 -83.5353 245° Southwest 241 277 9,000  Level Atlanta Center
06:37PM 36.0117 -83.6125 242° Southwest 235 270 9,000 -360 Level Atlanta Center
06:38PM 35.9639 -83.6642 221° Southwest 235 270 8,300 -1,500 Descending Atlanta Center
06:39PM 35.9119 -83.7208 221° Southwest 235 270 6,100 -1,980 Descending Atlanta Center
06:40PM 35.9161 -83.7875 274° West 200 230 4,400 -1,560 Descending Atlanta Center
06:41PM 35.9206 -83.8517 275° West 189 217 3,000 -1,440 Descending Atlanta Center
06:43PM 35.8309 -83.9524 219° Southwest  Level FlightAware Approximate
06:50PM 35.8000 -83.9833 219° Southwest  Level FlightAware Approximate
06:51PM 35.8110 -83.9940 219° Southwest  Level Estimated
06:52PM 35.8110 -83.9940 219° Southwest  Level Estimated
06:53PM 35.8110 -83.9940 219° Southwest  Level Estimated